Nearby METAR Reports

 

CWMM - Pitt Meadows, BC, Canada
Distance from station: ESE 9km
Updated: 05/20/2018 6:00am

 Wind from ESE
Wind: ESE 6 km/h
Temperature: 14°C
Dew Point: 11°C
Humidity: 82%
2018/05/20 13:00 CWMM 201300Z AUTO 11003KT 14/11 RMK AO1 SLP148 T01420109 52006
CWWK - White Rock, BC, Canada
Distance from station: S 27km
Updated: 05/20/2018 6:00am

 Wind from SE
Wind: SE 2 km/h
Temperature: 13°C
Dew Point: 11°C
Humidity: 88%
2018/05/20 13:00 CWWK 201300Z AUTO 14001KT 13/11 RMK AO1 SLP152 T01330106 53007
 
CWWA - West Vancouver, BC, Canada
Distance from station: WNW 30km
Updated: 05/20/2018 6:00am

 Wind from ESE
Wind: ESE 2 km/h
Temperature: 14°C
Dew Point: 11°C
Humidity: 82%
2018/05/20 13:00 CWWA 201300Z AUTO 11001KT 14/11 RMK AO1 SLP146 T01360108 53006
CYVR - Vancouver Airport , Canada
Distance from station: WSW 30km
Updated: 05/20/2018 6:00am
Overcast
Overcast
 Wind from E
Wind: E 15 km/h
Temperature: 13°C
Dew Point: 11°C
Humidity: 88%
Barometer: 1014.2 hPa
Clouds: Overcast
Visibility: 24 km
Cloud details: Few Clouds 1067 m
Mostly cloudy 2164 m
Overcast 2896 m
2018/05/20 13:00 CYVR 201300Z 10008KT 15SM FEW035 BKN071 OVC095 13/11 A2995 RMK SC1AC6AC1 SLP145
 
CYXX - Abbotsford, BC, Canada
Distance from station: SE 38km
Updated: 05/20/2018 6:00am
Overcast
Overcast
 Wind from SW
Wind: SW 6 km/h
Temperature: 13°C
Dew Point: 12°C
Humidity: 94%
Barometer: 1014.9 hPa
Clouds: Overcast
Visibility: 24 km
Cloud details: Partly cloudy 671 m
Mostly cloudy 914 m
Overcast 1189 m
2018/05/20 13:00 CYXX 201300Z 22003KT 15SM SCT022 BKN030 OVC039 13/12 A2997 RMK SC3SC3SC2 CVCTV CLD EMBD SH DIST E-SE SLP149
CWVF - Sand Heads Lighthouse, BC, Canada
Distance from station: WSW 41km
Updated: 05/20/2018 6:30am

 Wind from SE
Wind: SE 20 km/h
Temperature: 13°C
2018/05/20 13:30 CWVF 201330Z AUTO 14011KT 13/ RMK AO1 T0126
 
KBLI - Bellingham, WA, USA
Distance from station: SSE 54km
Updated: 05/20/2018 5:53am
Overcast
Overcast
 Wind from S
Wind: S 11 km/h
Temperature: 13°C
Dew Point: 10°C
Humidity: 82%
Barometer: 1014.9 hPa
Clouds: Overcast
Visibility: 16 km
Cloud details: Overcast 732 m
2018/05/20 12:53 KBLI 201253Z AUTO 17006KT 10SM OVC024 13/10 A2997 RMK AO2 SLP153 T01330100
CWEZ - Saturna Island, BC, Canada
Distance from station: SSW 56km
Updated: 05/20/2018 6:00am

 Wind from SW
Wind: SW 15 km/h
Temperature: 11°C
Dew Point: 9°C
Humidity: 88%
2018/05/20 13:00 CWEZ 201300Z AUTO 22008KT 11/09 RMK AO1 SLP144 T01140091 53008
 
KORS - Orcas Island Airport, WA, USA
Distance from station: S 63km
Updated: 05/20/2018 6:15am
Overcast
Overcast
 Wind from S
Wind: S 11 km/h
Temperature: 13°C
Dew Point: 10°C
Humidity: 82%
Barometer: 1014.9 hPa
Clouds: Overcast
Visibility: 16 km
Cloud details: Overcast 1006 m
2018/05/20 13:15 KORS 201315Z AUTO 18006KT 10SM OVC033 13/10 A2997 RMK AO2
CWSK - Squamish, BC, Canada
Distance from station: NNW 65km
Updated: 05/20/2018 6:00am

 Wind from NNW
Wind: NNW 4 km/h
Temperature: 13°C
Dew Point: 12°C
Humidity: 94%
2018/05/20 13:00 CWSK 201300Z AUTO 33002KT 13/12 RMK AO1 8PAST HR 2007 SLP139 P0030 T01260122 50078
 
CWEL - Entrance Island, BC, Canada
Distance from station: W 73km
Updated: 05/20/2018 6:00am

 Wind from SSE
Wind: SSE 13 km/h
Temperature: 12°C
Dew Point: 11°C
Humidity: 94%
2018/05/20 13:00 CWEL 201300Z AUTO 15007KT 12/11 RMK AO1 SLP140 T01240113 53009
CWZA - Agassiz, BC, Canada
Distance from station: E 74km
Updated: 05/20/2018 6:00am

 Wind from NNW
Wind: NNW 2 km/h
Temperature: 14°C
Dew Point: 12°C
Humidity: 88%
2018/05/20 13:00 CWZA 201300Z AUTO 33001KT 14/12 RMK AO1 SLP145 T01390115 52006
 
CYCD - Nanaimo Airport, BC, Canada
Distance from station: WSW 82km
Updated: 05/20/2018 6:00am
Mostly cloudy
Mostly cloudy
 Wind from W
Wind: W 9 km/h
Temperature: 14°C
Dew Point: 9°C
Humidity: 72%
Barometer: 1013.9 hPa
Clouds: Mostly cloudy
Visibility: 32 km
Cloud details: Few Clouds 762 m
Mostly cloudy 2682 m
Mostly cloudy 3962 m
2018/05/20 13:00 CYCD 201300Z 26005KT 20SM FEW025 BKN088 BKN130 14/09 A2994 RMK SC2AC3AC2 SLP141
CYYJ - Victoria Airport, BC, Canada
Distance from station: SW 83km
Updated: 05/20/2018 6:00am
Mostly cloudy
Mostly cloudy
 Wind from W
Wind: W 15 km/h
Temperature: 14°C
Dew Point: 9°C
Humidity: 72%
Barometer: 1014.6 hPa
Clouds: Mostly cloudy
Visibility: 32 km
Cloud details: Mostly cloudy 2134 m
Mostly cloudy 4572 m
2018/05/20 13:00 CYYJ 201300Z 27008KT 20SM BKN070 BKN150 14/09 A2996 RMK AC5AC2 SLP147
 
KFHR - Friday Harbor Airport, WA, USA
Distance from station: SSW 84km
Updated: 05/20/2018 5:53am
Overcast
Overcast
 Wind from SW
Wind: SW 13 km/h
Temperature: 12°C
Dew Point: 8°C
Humidity: 77%
Barometer: 1015.2 hPa
Clouds: Overcast
Visibility: 16 km
Cloud details: Overcast 945 m
2018/05/20 12:53 KFHR 201253Z AUTO 23007KT 10SM OVC031 12/08 A2998 RMK AO2 SLP153 T01170083 TSNO
KBVS - Skagit Regional Airport, WA, USA
Distance from station: SSE 92km
Updated: 05/20/2018 6:15am
Overcast
Overcast
 Wind from calm
Wind: Calm
Temperature: 12°C
Dew Point: 10°C
Humidity: 88%
Barometer: 1015.9 hPa
Clouds: Overcast
Visibility: 16 km
Cloud details: Overcast 701 m
2018/05/20 13:15 KBVS 201315Z AUTO 00000KT 10SM OVC023 12/10 A3000 RMK A01
 
CYHE - Hope Airport, BC, Canada
Distance from station: E 94km
Updated: 05/20/2018 6:00am
Overcast
Overcast
 Wind from calm
Wind: Calm
Temperature: 13°C
Dew Point: 11°C
Humidity: 88%
Barometer: 1014.6 hPa
Clouds: Overcast
Visibility: 14 km
Cloud details: Partly cloudy 1036 m
Overcast 1433 m
2018/05/20 13:00 CYHE 201300Z AUTO 00000KT 9SM SCT034 OVC047 13/11 A2996 RMK SLP147
CWKH - Malahat, BC, Canada
Distance from station: SW 95km
Updated: 05/20/2018 6:00am

 
Temperature: 11°C
Dew Point: 6°C
Humidity: 72%
2018/05/20 13:00 CWKH 201300Z AUTO 11/06 RMK AO1 SLP136 T01120063 53005
 
CWYJ - Victoria University, BC, Canada
Distance from station: SSW 97km
Updated: 05/20/2018 6:00am

 Wind from WSW
Wind: WSW 7 km/h
Temperature: 13°C
Dew Point: 8°C
Humidity: 72%
2018/05/20 13:00 CWYJ 201300Z AUTO 24004KT 13/08 RMK AO1 SLP148 T01280075 53007
CWAE - Whistler, BC, Canada
Distance from station: N 98km
Updated: 12/31/1969 4:00pm
NOT Current
unable to load CWAE data RC=404 Not Found
unable to load CWAE data RC=404 Not Found
 
 
CYHM - Hamilton Airport, Ontario, Canada
Distance from station: SSW 4266km
Updated: 05/20/2018 6:00am
Mostly cloudy
Mostly cloudy
 Wind from NW
Wind: NW 13 km/h
Temperature: 14°C
Dew Point: 11°C
Humidity: 82%
Barometer: 1016.9 hPa
Clouds: Mostly cloudy
Visibility: 24 km
Cloud details: Partly cloudy 488 m
Mostly cloudy 549 m
2018/05/20 13:00 CYHM 201300Z 31007KT 15SM SCT016 BKN018 14/11 A3003 RMK CF3SC4 SLP172